sensor_id;sensor_type;location;lat;lon;timestamp;pressure;altitude;pressure_sealevel;temperature;humidity
11395;BME280;5753;54.402;10.220;2023-05-24T00:00:42;101885.78;;;19.73;46.21
11395;BME280;5753;54.402;10.220;2023-05-24T00:03:08;101889.38;;;19.43;46.85
11395;BME280;5753;54.402;10.220;2023-05-24T00:05:34;101880.16;;;20.32;45.28
11395;BME280;5753;54.402;10.220;2023-05-24T00:08:06;101876.59;;;20.46;44.95
11395;BME280;5753;54.402;10.220;2023-05-24T00:10:32;101866.75;;;20.70;44.72
11395;BME280;5753;54.402;10.220;2023-05-24T00:12:58;101872.84;;;20.72;44.22
11395;BME280;5753;54.402;10.220;2023-05-24T00:15:24;101879.13;;;20.58;44.85
11395;BME280;5753;54.402;10.220;2023-05-24T00:17:50;101886.00;;;19.03;47.62
11395;BME280;5753;54.402;10.220;2023-05-24T00:20:16;101878.00;;;19.52;46.39
11395;BME280;5753;54.402;10.220;2023-05-24T00:22:45;101878.06;;;20.75;44.47
11395;BME280;5753;54.402;10.220;2023-05-24T00:25:12;101872.63;;;19.85;45.43
11395;BME280;5753;54.402;10.220;2023-05-24T00:27:38;101878.03;;;20.79;43.98
11395;BME280;5753;54.402;10.220;2023-05-24T00:30:05;101880.59;;;20.88;43.78
11395;BME280;5753;54.402;10.220;2023-05-24T00:32:31;101876.88;;;20.04;45.61
11395;BME280;5753;54.402;10.220;2023-05-24T00:34:57;101871.41;;;20.38;45.38
11395;BME280;5753;54.402;10.220;2023-05-24T00:37:23;101868.00;;;20.24;45.72
11395;BME280;5753;54.402;10.220;2023-05-24T00:39:50;101867.94;;;20.34;46.10
11395;BME280;5753;54.402;10.220;2023-05-24T00:42:16;101865.66;;;19.89;46.23
11395;BME280;5753;54.402;10.220;2023-05-24T00:44:42;101869.53;;;20.55;44.99
11395;BME280;5753;54.402;10.220;2023-05-24T00:47:08;101862.56;;;20.54;45.35
11395;BME280;5753;54.402;10.220;2023-05-24T00:49:35;101863.69;;;20.18;46.24
11395;BME280;5753;54.402;10.220;2023-05-24T00:52:01;101862.69;;;20.33;46.13
11395;BME280;5753;54.402;10.220;2023-05-24T00:54:28;101861.38;;;19.68;46.76
11395;BME280;5753;54.402;10.220;2023-05-24T00:56:55;101860.63;;;19.32;47.66
11395;BME280;5753;54.402;10.220;2023-05-24T00:59:22;101851.03;;;19.43;48.05
11395;BME280;5753;54.402;10.220;2023-05-24T01:01:48;101856.34;;;19.16;48.63
11395;BME280;5753;54.402;10.220;2023-05-24T01:04:15;101861.47;;;19.37;48.33
11395;BME280;5753;54.402;10.220;2023-05-24T01:09:33;101839.38;;;20.04;46.89
11395;BME280;5753;54.402;10.220;2023-05-24T01:15:27;101847.38;;;19.78;48.06
11395;BME280;5753;54.402;10.220;2023-05-24T01:18:23;101851.97;;;19.21;49.36
11395;BME280;5753;54.402;10.220;2023-05-24T01:24:17;101855.50;;;19.09;49.36
11395;BME280;5753;54.402;10.220;2023-05-24T01:27:07;101850.34;;;18.73;51.42
11395;BME280;5753;54.402;10.220;2023-05-24T01:29:34;101852.06;;;18.98;49.78
11395;BME280;5753;54.402;10.220;2023-05-24T01:32:01;101850.28;;;20.59;46.71
11395;BME280;5753;54.402;10.220;2023-05-24T01:34:28;101844.81;;;20.81;45.38
11395;BME280;5753;54.402;10.220;2023-05-24T01:36:54;101849.81;;;21.05;45.38
11395;BME280;5753;54.402;10.220;2023-05-24T01:39:23;101853.16;;;20.26;46.88
11395;BME280;5753;54.402;10.220;2023-05-24T01:44:54;101854.63;;;19.09;50.05
11395;BME280;5753;54.402;10.220;2023-05-24T01:47:32;101861.47;;;19.53;48.90
11395;BME280;5753;54.402;10.220;2023-05-24T01:52:44;101862.25;;;19.68;48.55
11395;BME280;5753;54.402;10.220;2023-05-24T01:55:13;101867.19;;;20.16;47.83
11395;BME280;5753;54.402;10.220;2023-05-24T01:57:43;101859.28;;;20.22;47.19
11395;BME280;5753;54.402;10.220;2023-05-24T02:00:13;101866.47;;;19.95;47.60
11395;BME280;5753;54.402;10.220;2023-05-24T02:02:40;101862.84;;;20.15;47.97
11395;BME280;5753;54.402;10.220;2023-05-24T02:05:06;101855.25;;;20.87;46.21
11395;BME280;5753;54.402;10.220;2023-05-24T02:07:32;101859.59;;;20.91;45.94
11395;BME280;5753;54.402;10.220;2023-05-24T02:09:58;101861.78;;;20.43;47.20
11395;BME280;5753;54.402;10.220;2023-05-24T02:12:25;101863.78;;;20.06;47.56
11395;BME280;5753;54.402;10.220;2023-05-24T02:14:51;101868.38;;;19.66;48.46
11395;BME280;5753;54.402;10.220;2023-05-24T02:17:17;101863.13;;;19.66;49.00
11395;BME280;5753;54.402;10.220;2023-05-24T02:19:44;101854.91;;;21.17;45.69
11395;BME280;5753;54.402;10.220;2023-05-24T02:22:10;101865.03;;;19.21;50.19
11395;BME280;5753;54.402;10.220;2023-05-24T02:24:37;101864.88;;;19.67;49.33
11395;BME280;5753;54.402;10.220;2023-05-24T02:27:05;101859.38;;;20.12;48.24
11395;BME280;5753;54.402;10.220;2023-05-24T02:29:31;101868.50;;;19.29;49.75
11395;BME280;5753;54.402;10.220;2023-05-24T02:31:57;101868.44;;;20.78;47.19
11395;BME280;5753;54.402;10.220;2023-05-24T02:34:23;101865.59;;;19.95;48.84
11395;BME280;5753;54.402;10.220;2023-05-24T02:36:50;101868.34;;;20.90;46.77
11395;BME280;5753;54.402;10.220;2023-05-24T02:39:16;101865.38;;;20.24;48.02
11395;BME280;5753;54.402;10.220;2023-05-24T02:41:42;101869.66;;;20.40;46.91
11395;BME280;5753;54.402;10.220;2023-05-24T02:44:08;101869.59;;;20.49;47.02
11395;BME280;5753;54.402;10.220;2023-05-24T02:46:34;101878.41;;;20.36;48.11
11395;BME280;5753;54.402;10.220;2023-05-24T02:49:01;101871.91;;;20.80;46.78
11395;BME280;5753;54.402;10.220;2023-05-24T02:51:27;101871.19;;;20.65;47.48
11395;BME280;5753;54.402;10.220;2023-05-24T02:53:53;101877.66;;;20.17;48.47
11395;BME280;5753;54.402;10.220;2023-05-24T02:56:19;101883.66;;;20.31;48.00
11395;BME280;5753;54.402;10.220;2023-05-24T02:58:46;101880.59;;;20.88;47.23
11395;BME280;5753;54.402;10.220;2023-05-24T03:01:12;101881.91;;;20.29;47.47
11395;BME280;5753;54.402;10.220;2023-05-24T03:03:39;101874.78;;;20.52;47.51
11395;BME280;5753;54.402;10.220;2023-05-24T03:06:06;101877.63;;;21.18;46.20
11395;BME280;5753;54.402;10.220;2023-05-24T03:08:33;101879.59;;;20.98;46.51
11395;BME280;5753;54.402;10.220;2023-05-24T03:10:59;101887.06;;;20.47;47.36
11395;BME280;5753;54.402;10.220;2023-05-24T03:13:25;101881.09;;;21.20;46.23
11395;BME280;5753;54.402;10.220;2023-05-24T03:15:51;101885.53;;;21.14;46.18
11395;BME280;5753;54.402;10.220;2023-05-24T03:18:17;101889.63;;;20.53;47.40
11395;BME280;5753;54.402;10.220;2023-05-24T03:20:43;101884.13;;;21.62;45.16
11395;BME280;5753;54.402;10.220;2023-05-24T03:23:09;101881.00;;;21.32;46.13
11395;BME280;5753;54.402;10.220;2023-05-24T03:25:37;101878.41;;;20.36;47.68
11395;BME280;5753;54.402;10.220;2023-05-24T03:28:03;101878.91;;;20.82;47.00
11395;BME280;5753;54.402;10.220;2023-05-24T03:30:29;101886.41;;;21.14;46.08
11395;BME280;5753;54.402;10.220;2023-05-24T03:32:55;101890.41;;;20.63;46.91
11395;BME280;5753;54.402;10.220;2023-05-24T03:35:21;101885.03;;;20.77;46.98
11395;BME280;5753;54.402;10.220;2023-05-24T03:37:47;101889.03;;;21.86;44.15
11395;BME280;5753;54.402;10.220;2023-05-24T03:40:13;101885.94;;;20.74;46.96
11395;BME280;5753;54.402;10.220;2023-05-24T03:42:39;101885.00;;;20.83;46.70
11395;BME280;5753;54.402;10.220;2023-05-24T03:45:06;101900.78;;;20.73;46.93
11395;BME280;5753;54.402;10.220;2023-05-24T03:47:33;101894.09;;;21.34;45.53
11395;BME280;5753;54.402;10.220;2023-05-24T03:49:59;101899.59;;;21.06;45.99
11395;BME280;5753;54.402;10.220;2023-05-24T03:52:25;101910.59;;;21.42;45.61
11395;BME280;5753;54.402;10.220;2023-05-24T03:54:51;101899.78;;;20.91;46.58
11395;BME280;5753;54.402;10.220;2023-05-24T03:57:17;101902.06;;;21.94;44.74
11395;BME280;5753;54.402;10.220;2023-05-24T03:59:43;101900.81;;;22.19;44.19
11395;BME280;5753;54.402;10.220;2023-05-24T04:02:09;101893.59;;;22.35;43.71
11395;BME280;5753;54.402;10.220;2023-05-24T04:04:35;101902.22;;;21.08;45.88
11395;BME280;5753;54.402;10.220;2023-05-24T04:07:02;101911.88;;;21.81;44.56
11395;BME280;5753;54.402;10.220;2023-05-24T04:09:28;101907.56;;;21.74;44.59
11395;BME280;5753;54.402;10.220;2023-05-24T04:11:54;101909.81;;;22.05;44.76
11395;BME280;5753;54.402;10.220;2023-05-24T04:14:20;101904.16;;;22.32;44.11
11395;BME280;5753;54.402;10.220;2023-05-24T04:16:46;101914.81;;;21.55;45.09
11395;BME280;5753;54.402;10.220;2023-05-24T04:19:13;101915.63;;;22.79;42.75
11395;BME280;5753;54.402;10.220;2023-05-24T04:21:39;101922.00;;;22.09;44.40
11395;BME280;5753;54.402;10.220;2023-05-24T04:24:05;101920.38;;;21.26;45.31
11395;BME280;5753;54.402;10.220;2023-05-24T04:26:32;101923.50;;;21.60;44.55
11395;BME280;5753;54.402;10.220;2023-05-24T04:28:59;101922.84;;;21.42;44.95
11395;BME280;5753;54.402;10.220;2023-05-24T04:31:26;101925.41;;;22.69;42.98
11395;BME280;5753;54.402;10.220;2023-05-24T04:33:56;101927.63;;;21.81;44.79
11395;BME280;5753;54.402;10.220;2023-05-24T04:36:24;101928.78;;;22.25;43.88
11395;BME280;5753;54.402;10.220;2023-05-24T04:38:50;101926.81;;;22.93;42.85
11395;BME280;5753;54.402;10.220;2023-05-24T04:41:18;101930.22;;;21.83;44.79
11395;BME280;5753;54.402;10.220;2023-05-24T04:43:44;101937.44;;;21.64;45.51
11395;BME280;5753;54.402;10.220;2023-05-24T04:46:11;101941.44;;;21.94;44.72
11395;BME280;5753;54.402;10.220;2023-05-24T04:48:37;101941.09;;;21.51;45.97
11395;BME280;5753;54.402;10.220;2023-05-24T04:51:04;101942.88;;;21.49;46.07
11395;BME280;5753;54.402;10.220;2023-05-24T04:53:30;101944.44;;;20.74;46.75
11395;BME280;5753;54.402;10.220;2023-05-24T04:55:56;101941.56;;;21.05;46.43
11395;BME280;5753;54.402;10.220;2023-05-24T04:58:22;101951.69;;;20.45;47.10
11395;BME280;5753;54.402;10.220;2023-05-24T05:00:48;101941.78;;;20.81;47.22
11395;BME280;5753;54.402;10.220;2023-05-24T05:03:14;101950.09;;;20.17;47.97
11395;BME280;5753;54.402;10.220;2023-05-24T05:05:40;101949.94;;;20.44;47.97
11395;BME280;5753;54.402;10.220;2023-05-24T05:08:06;101950.03;;;21.36;45.94
11395;BME280;5753;54.402;10.220;2023-05-24T05:10:32;101953.75;;;21.90;44.85
11395;BME280;5753;54.402;10.220;2023-05-24T05:12:58;101960.53;;;21.36;46.02
11395;BME280;5753;54.402;10.220;2023-05-24T05:15:25;101960.63;;;21.24;46.31
11395;BME280;5753;54.402;10.220;2023-05-24T05:17:51;101960.91;;;22.42;44.03
11395;BME280;5753;54.402;10.220;2023-05-24T05:20:17;101969.28;;;22.66;43.20
11395;BME280;5753;54.402;10.220;2023-05-24T05:22:49;101972.69;;;23.24;42.63
11395;BME280;5753;54.402;10.220;2023-05-24T05:25:15;101972.06;;;22.56;42.69
11395;BME280;5753;54.402;10.220;2023-05-24T05:27:42;101966.41;;;22.27;43.86
11395;BME280;5753;54.402;10.220;2023-05-24T05:30:08;101964.13;;;22.59;42.70
11395;BME280;5753;54.402;10.220;2023-05-24T05:32:35;101966.53;;;23.26;41.80
11395;BME280;5753;54.402;10.220;2023-05-24T05:35:01;101974.25;;;22.85;42.79
11395;BME280;5753;54.402;10.220;2023-05-24T05:37:27;101972.81;;;23.18;41.80
11395;BME280;5753;54.402;10.220;2023-05-24T05:39:54;101974.19;;;23.38;41.86
11395;BME280;5753;54.402;10.220;2023-05-24T05:42:20;101985.31;;;22.50;43.49
11395;BME280;5753;54.402;10.220;2023-05-24T05:44:46;101973.50;;;23.74;41.53
11395;BME280;5753;54.402;10.220;2023-05-24T05:47:12;101973.59;;;23.23;42.78
11395;BME280;5753;54.402;10.220;2023-05-24T05:49:38;101978.34;;;23.02;43.13
11395;BME280;5753;54.402;10.220;2023-05-24T05:52:05;101982.31;;;22.75;43.39
11395;BME280;5753;54.402;10.220;2023-05-24T05:54:31;101992.97;;;23.67;41.28
11395;BME280;5753;54.402;10.220;2023-05-24T05:56:58;101987.63;;;22.72;43.31
11395;BME280;5753;54.402;10.220;2023-05-24T05:59:24;101990.09;;;23.32;42.74
11395;BME280;5753;54.402;10.220;2023-05-24T06:01:50;101991.59;;;23.45;42.27
11395;BME280;5753;54.402;10.220;2023-05-24T06:04:17;101995.97;;;22.41;43.61
11395;BME280;5753;54.402;10.220;2023-05-24T06:06:43;101993.75;;;23.24;42.46
11395;BME280;5753;54.402;10.220;2023-05-24T06:09:13;101993.28;;;23.01;43.01
11395;BME280;5753;54.402;10.220;2023-05-24T06:11:39;102006.66;;;23.37;41.96
11395;BME280;5753;54.402;10.220;2023-05-24T06:14:13;102013.97;;;23.70;41.51
11395;BME280;5753;54.402;10.220;2023-05-24T06:16:44;102017.44;;;23.23;42.28
11395;BME280;5753;54.402;10.220;2023-05-24T06:19:11;102023.81;;;23.08;42.55
11395;BME280;5753;54.402;10.220;2023-05-24T06:21:37;102016.97;;;22.41;43.39
11395;BME280;5753;54.402;10.220;2023-05-24T06:24:05;102017.03;;;24.71;40.53
11395;BME280;5753;54.402;10.220;2023-05-24T06:26:35;102028.22;;;23.08;41.81
11395;BME280;5753;54.402;10.220;2023-05-24T06:29:02;102025.03;;;25.03;39.08
11395;BME280;5753;54.402;10.220;2023-05-24T06:31:28;102031.03;;;24.36;40.27
11395;BME280;5753;54.402;10.220;2023-05-24T06:33:54;102040.50;;;24.03;41.06
11395;BME280;5753;54.402;10.220;2023-05-24T06:36:20;102036.97;;;24.83;39.96
11395;BME280;5753;54.402;10.220;2023-05-24T06:38:46;102044.31;;;24.31;40.19
11395;BME280;5753;54.402;10.220;2023-05-24T06:41:12;102044.28;;;25.08;39.20
11395;BME280;5753;54.402;10.220;2023-05-24T06:43:38;102047.50;;;25.20;39.22
11395;BME280;5753;54.402;10.220;2023-05-24T06:46:05;102043.88;;;24.49;39.71
11395;BME280;5753;54.402;10.220;2023-05-24T06:48:32;102048.72;;;24.31;39.75
11395;BME280;5753;54.402;10.220;2023-05-24T06:50:58;102056.50;;;25.13;39.11
11395;BME280;5753;54.402;10.220;2023-05-24T06:53:24;102062.75;;;24.31;40.05
11395;BME280;5753;54.402;10.220;2023-05-24T06:55:50;102059.31;;;23.84;41.55
11395;BME280;5753;54.402;10.220;2023-05-24T06:58:16;102074.38;;;24.63;40.43
11395;BME280;5753;54.402;10.220;2023-05-24T07:00:42;102064.91;;;24.12;40.81
11395;BME280;5753;54.402;10.220;2023-05-24T07:03:11;102065.53;;;25.36;38.47
11395;BME280;5753;54.402;10.220;2023-05-24T07:05:38;102066.53;;;24.95;39.50
11395;BME280;5753;54.402;10.220;2023-05-24T07:08:04;102073.31;;;25.08;39.11
11395;BME280;5753;54.402;10.220;2023-05-24T07:10:30;102071.84;;;25.31;38.95
11395;BME280;5753;54.402;10.220;2023-05-24T07:12:56;102069.41;;;25.57;38.88
11395;BME280;5753;54.402;10.220;2023-05-24T07:15:22;102085.09;;;24.54;40.36
11395;BME280;5753;54.402;10.220;2023-05-24T07:17:48;102087.66;;;24.16;41.05
11395;BME280;5753;54.402;10.220;2023-05-24T07:20:15;102090.34;;;24.12;40.88
11395;BME280;5753;54.402;10.220;2023-05-24T07:22:41;102087.75;;;23.67;41.74
11395;BME280;5753;54.402;10.220;2023-05-24T07:25:08;102097.38;;;24.13;40.41
11395;BME280;5753;54.402;10.220;2023-05-24T07:27:34;102098.47;;;23.00;42.91
11395;BME280;5753;54.402;10.220;2023-05-24T07:30:01;102094.97;;;23.53;42.71
11395;BME280;5753;54.402;10.220;2023-05-24T07:32:27;102110.66;;;23.59;41.96
11395;BME280;5753;54.402;10.220;2023-05-24T07:34:54;102108.19;;;23.98;41.66
11395;BME280;5753;54.402;10.220;2023-05-24T07:37:20;102100.84;;;24.95;40.21
11395;BME280;5753;54.402;10.220;2023-05-24T07:39:49;102098.25;;;25.65;38.76
11395;BME280;5753;54.402;10.220;2023-05-24T07:42:16;102106.13;;;25.32;39.21
11395;BME280;5753;54.402;10.220;2023-05-24T07:44:42;102111.72;;;24.82;40.04
11395;BME280;5753;54.402;10.220;2023-05-24T07:47:08;102103.91;;;24.77;39.68
11395;BME280;5753;54.402;10.220;2023-05-24T07:49:34;102103.22;;;24.69;40.10
11395;BME280;5753;54.402;10.220;2023-05-24T07:52:00;102109.84;;;25.59;38.81
11395;BME280;5753;54.402;10.220;2023-05-24T07:54:28;102115.00;;;25.30;38.96
11395;BME280;5753;54.402;10.220;2023-05-24T07:56:55;102113.66;;;25.82;38.06
11395;BME280;5753;54.402;10.220;2023-05-24T07:59:22;102105.69;;;27.03;35.79
11395;BME280;5753;54.402;10.220;2023-05-24T08:01:48;102107.69;;;26.66;36.33
11395;BME280;5753;54.402;10.220;2023-05-24T08:04:15;102105.50;;;27.09;35.42
11395;BME280;5753;54.402;10.220;2023-05-24T08:06:41;102113.03;;;26.35;37.20
11395;BME280;5753;54.402;10.220;2023-05-24T08:09:07;102107.69;;;28.22;34.91
11395;BME280;5753;54.402;10.220;2023-05-24T08:11:33;102108.59;;;28.46;33.20
11395;BME280;5753;54.402;10.220;2023-05-24T08:13:59;102106.78;;;28.23;33.58
11395;BME280;5753;54.402;10.220;2023-05-24T08:16:26;102108.16;;;28.10;33.47
11395;BME280;5753;54.402;10.220;2023-05-24T08:18:52;102113.41;;;28.80;33.12
11395;BME280;5753;54.402;10.220;2023-05-24T08:21:18;102107.63;;;28.70;32.38
11395;BME280;5753;54.402;10.220;2023-05-24T08:23:44;102113.88;;;27.99;33.58
11395;BME280;5753;54.402;10.220;2023-05-24T08:26:10;102114.31;;;27.60;33.99
11395;BME280;5753;54.402;10.220;2023-05-24T08:28:36;102109.56;;;27.45;34.02
11395;BME280;5753;54.402;10.220;2023-05-24T08:31:02;102124.03;;;28.58;33.22
11395;BME280;5753;54.402;10.220;2023-05-24T08:33:29;102118.94;;;27.29;34.24
11395;BME280;5753;54.402;10.220;2023-05-24T08:35:55;102119.31;;;26.89;35.19
11395;BME280;5753;54.402;10.220;2023-05-24T08:38:21;102122.78;;;26.63;35.53
11395;BME280;5753;54.402;10.220;2023-05-24T08:40:47;102120.94;;;26.06;36.59
11395;BME280;5753;54.402;10.220;2023-05-24T08:43:14;102130.66;;;25.00;36.90
11395;BME280;5753;54.402;10.220;2023-05-24T08:45:40;102129.38;;;25.52;36.35
11395;BME280;5753;54.402;10.220;2023-05-24T08:48:08;102136.44;;;26.49;36.36
11395;BME280;5753;54.402;10.220;2023-05-24T08:50:35;102137.63;;;26.69;36.10
11395;BME280;5753;54.402;10.220;2023-05-24T08:53:01;102149.19;;;28.00;33.64
11395;BME280;5753;54.402;10.220;2023-05-24T08:55:30;102149.25;;;27.98;33.09
11395;BME280;5753;54.402;10.220;2023-05-24T08:57:57;102145.25;;;27.60;34.66
11395;BME280;5753;54.402;10.220;2023-05-24T09:00:24;102155.97;;;26.73;37.01
11395;BME280;5753;54.402;10.220;2023-05-24T09:02:51;102161.94;;;28.38;34.89
11395;BME280;5753;54.402;10.220;2023-05-24T09:05:17;102166.19;;;26.85;35.76
11395;BME280;5753;54.402;10.220;2023-05-24T09:07:47;102167.94;;;26.57;37.09
11395;BME280;5753;54.402;10.220;2023-05-24T09:10:14;102172.88;;;28.04;34.97
11395;BME280;5753;54.402;10.220;2023-05-24T09:12:48;102167.66;;;28.73;33.12
11395;BME280;5753;54.402;10.220;2023-05-24T09:15:17;102170.47;;;27.72;35.02
11395;BME280;5753;54.402;10.220;2023-05-24T09:17:43;102177.97;;;27.05;35.86
11395;BME280;5753;54.402;10.220;2023-05-24T09:20:09;102170.41;;;28.48;33.62
11395;BME280;5753;54.402;10.220;2023-05-24T09:22:36;102171.47;;;28.44;34.60
11395;BME280;5753;54.402;10.220;2023-05-24T09:25:05;102179.72;;;27.32;35.48
11395;BME280;5753;54.402;10.220;2023-05-24T09:27:33;102170.91;;;28.09;34.37
11395;BME280;5753;54.402;10.220;2023-05-24T09:30:00;102179.13;;;28.51;34.42
11395;BME280;5753;54.402;10.220;2023-05-24T09:32:30;102180.00;;;27.77;33.70
11395;BME280;5753;54.402;10.220;2023-05-24T09:34:58;102174.03;;;27.18;34.30
11395;BME280;5753;54.402;10.220;2023-05-24T09:37:25;102183.84;;;25.56;37.63
11395;BME280;5753;54.402;10.220;2023-05-24T09:39:55;102184.00;;;28.14;33.78
11395;BME280;5753;54.402;10.220;2023-05-24T09:42:25;102177.47;;;27.20;34.52
11395;BME280;5753;54.402;10.220;2023-05-24T09:45:01;102184.84;;;27.91;34.48
11395;BME280;5753;54.402;10.220;2023-05-24T09:47:33;102184.91;;;27.35;35.26
11395;BME280;5753;54.402;10.220;2023-05-24T09:50:04;102186.75;;;27.33;35.66
11395;BME280;5753;54.402;10.220;2023-05-24T09:52:35;102193.75;;;26.78;35.77
11395;BME280;5753;54.402;10.220;2023-05-24T09:55:14;102179.63;;;27.88;35.03
11395;BME280;5753;54.402;10.220;2023-05-24T09:57:41;102183.13;;;27.64;34.09
11395;BME280;5753;54.402;10.220;2023-05-24T10:00:08;102179.66;;;27.62;34.55
11395;BME280;5753;54.402;10.220;2023-05-24T10:02:45;102182.16;;;28.64;33.18
11395;BME280;5753;54.402;10.220;2023-05-24T10:05:12;102182.09;;;28.17;32.72
11395;BME280;5753;54.402;10.220;2023-05-24T10:07:39;102178.38;;;28.48;33.84
11395;BME280;5753;54.402;10.220;2023-05-24T10:10:07;102182.97;;;27.14;34.88
11395;BME280;5753;54.402;10.220;2023-05-24T10:12:35;102173.94;;;26.91;35.90
11395;BME280;5753;54.402;10.220;2023-05-24T10:15:03;102177.78;;;27.11;34.77
11395;BME280;5753;54.402;10.220;2023-05-24T10:17:29;102183.66;;;26.91;34.75
11395;BME280;5753;54.402;10.220;2023-05-24T10:19:55;102185.56;;;27.15;34.37
11395;BME280;5753;54.402;10.220;2023-05-24T10:22:23;102182.38;;;27.32;35.20
11395;BME280;5753;54.402;10.220;2023-05-24T10:24:52;102187.03;;;27.78;34.90
11395;BME280;5753;54.402;10.220;2023-05-24T10:27:26;102187.47;;;28.64;32.55
11395;BME280;5753;54.402;10.220;2023-05-24T10:32:38;102190.34;;;27.85;33.86
11395;BME280;5753;54.402;10.220;2023-05-24T10:35:06;102182.25;;;27.63;35.28
11395;BME280;5753;54.402;10.220;2023-05-24T10:37:34;102191.03;;;27.37;35.04
11395;BME280;5753;54.402;10.220;2023-05-24T10:40:00;102187.28;;;27.44;34.05
11395;BME280;5753;54.402;10.220;2023-05-24T10:42:29;102190.56;;;29.42;32.48
11395;BME280;5753;54.402;10.220;2023-05-24T10:44:56;102189.97;;;29.58;31.99
11395;BME280;5753;54.402;10.220;2023-05-24T10:47:25;102188.03;;;28.26;33.20
11395;BME280;5753;54.402;10.220;2023-05-24T10:49:56;102196.28;;;28.65;32.92
11395;BME280;5753;54.402;10.220;2023-05-24T10:52:34;102198.50;;;29.44;32.11
11395;BME280;5753;54.402;10.220;2023-05-24T10:55:06;102205.66;;;29.20;31.81
11395;BME280;5753;54.402;10.220;2023-05-24T10:57:36;102203.16;;;28.70;33.20
11395;BME280;5753;54.402;10.220;2023-05-24T11:02:50;102206.06;;;29.95;31.20
11395;BME280;5753;54.402;10.220;2023-05-24T11:05:24;102210.63;;;28.82;32.59
11395;BME280;5753;54.402;10.220;2023-05-24T11:07:58;102207.75;;;29.56;31.65
11395;BME280;5753;54.402;10.220;2023-05-24T11:10:31;102210.16;;;28.00;33.26
11395;BME280;5753;54.402;10.220;2023-05-24T11:13:00;102210.59;;;30.14;30.81
11395;BME280;5753;54.402;10.220;2023-05-24T11:15:27;102207.38;;;29.65;31.78
11395;BME280;5753;54.402;10.220;2023-05-24T11:20:42;102194.34;;;29.79;30.33
11395;BME280;5753;54.402;10.220;2023-05-24T11:23:09;102206.13;;;29.30;31.13
11395;BME280;5753;54.402;10.220;2023-05-24T11:25:37;102197.16;;;30.17;29.90
11395;BME280;5753;54.402;10.220;2023-05-24T11:28:07;102197.56;;;29.87;30.28
11395;BME280;5753;54.402;10.220;2023-05-24T11:30:46;102208.88;;;29.50;31.84
11395;BME280;5753;54.402;10.220;2023-05-24T11:33:19;102210.16;;;30.04;29.62
11395;BME280;5753;54.402;10.220;2023-05-24T11:35:51;102210.09;;;29.41;30.24
11395;BME280;5753;54.402;10.220;2023-05-24T11:38:18;102206.84;;;29.77;29.75
11395;BME280;5753;54.402;10.220;2023-05-24T11:40:47;102217.34;;;29.38;30.60
11395;BME280;5753;54.402;10.220;2023-05-24T11:43:15;102209.63;;;29.54;29.91
11395;BME280;5753;54.402;10.220;2023-05-24T11:45:46;102217.69;;;29.93;30.03
11395;BME280;5753;54.402;10.220;2023-05-24T11:48:14;102218.78;;;30.09;29.40
11395;BME280;5753;54.402;10.220;2023-05-24T11:50:45;102220.59;;;31.42;28.18
11395;BME280;5753;54.402;10.220;2023-05-24T11:53:16;102224.03;;;30.31;29.35
11395;BME280;5753;54.402;10.220;2023-05-24T11:55:43;102221.91;;;32.04;26.78
11395;BME280;5753;54.402;10.220;2023-05-24T11:58:21;102218.06;;;30.05;28.45
11395;BME280;5753;54.402;10.220;2023-05-24T12:00:48;102231.59;;;32.72;26.91
11395;BME280;5753;54.402;10.220;2023-05-24T12:03:15;102225.38;;;31.71;26.27
11395;BME280;5753;54.402;10.220;2023-05-24T12:05:42;102223.06;;;32.66;26.08
11395;BME280;5753;54.402;10.220;2023-05-24T12:08:10;102219.56;;;32.81;25.30
11395;BME280;5753;54.402;10.220;2023-05-24T12:10:38;102225.50;;;32.86;26.20
11395;BME280;5753;54.402;10.220;2023-05-24T12:13:22;102230.50;;;34.58;24.34
11395;BME280;5753;54.402;10.220;2023-05-24T12:15:50;102232.03;;;35.84;23.41
11395;BME280;5753;54.402;10.220;2023-05-24T12:18:18;102225.91;;;35.94;22.78
11395;BME280;5753;54.402;10.220;2023-05-24T12:20:48;102227.78;;;37.66;21.17
11395;BME280;5753;54.402;10.220;2023-05-24T12:23:15;102226.59;;;37.22;20.86
11395;BME280;5753;54.402;10.220;2023-05-24T12:25:41;102221.84;;;36.14;21.22
11395;BME280;5753;54.402;10.220;2023-05-24T12:28:09;102228.38;;;37.34;20.65
11395;BME280;5753;54.402;10.220;2023-05-24T12:30:36;102225.66;;;37.58;20.30
11395;BME280;5753;54.402;10.220;2023-05-24T12:33:08;102223.78;;;38.40;20.45
11395;BME280;5753;54.402;10.220;2023-05-24T12:35:34;102230.69;;;39.94;18.56
11395;BME280;5753;54.402;10.220;2023-05-24T12:38:01;102240.81;;;40.94;17.61
11395;BME280;5753;54.402;10.220;2023-05-24T12:40:31;102229.66;;;38.34;19.22
11395;BME280;5753;54.402;10.220;2023-05-24T12:42:58;102241.41;;;39.85;18.75
11395;BME280;5753;54.402;10.220;2023-05-24T12:45:26;102241.47;;;39.53;18.05
11395;BME280;5753;54.402;10.220;2023-05-24T12:47:57;102238.88;;;41.73;16.84
11395;BME280;5753;54.402;10.220;2023-05-24T12:50:25;102224.22;;;40.77;17.06
11395;BME280;5753;54.402;10.220;2023-05-24T12:52:52;102229.38;;;40.40;17.09
11395;BME280;5753;54.402;10.220;2023-05-24T12:55:22;102232.09;;;40.40;16.95
11395;BME280;5753;54.402;10.220;2023-05-24T12:57:49;102232.19;;;39.87;17.03
11395;BME280;5753;54.402;10.220;2023-05-24T13:00:24;102232.31;;;41.37;16.67
11395;BME280;5753;54.402;10.220;2023-05-24T13:02:54;102217.88;;;41.85;16.59
11395;BME280;5753;54.402;10.220;2023-05-24T13:05:26;102214.22;;;40.28;17.34
11395;BME280;5753;54.402;10.220;2023-05-24T13:07:53;102218.66;;;40.29;17.77
11395;BME280;5753;54.402;10.220;2023-05-24T13:10:19;102216.75;;;41.77;16.33
11395;BME280;5753;54.402;10.220;2023-05-24T13:12:45;102226.03;;;41.17;16.80
11395;BME280;5753;54.402;10.220;2023-05-24T13:15:12;102219.88;;;43.99;14.89